Terminal Aerodrome Forecast
Issued by NWS

Home | Current Version | Previous Version | Text Only | Print | Product List | Glossary On
Versions: 1 2 3 4 5 6 7 8 9 10 11 12 13 14 15 16 17
000
FTUS45 KABQ 261300 AAA
TAFSAF
TAF AMD
KSAF 261343Z 2614/2712 02005KT P6SM OVC070
      TEMPO 2614/2618 4SM -RA BR OVC020
     FM261800 18012KT P6SM VCSH OVC040
     FM262100 31009KT P6SM VCTS OVC035CB
     FM270000 03008KT P6SM VCSH OVC040
     FM270900 36010KT P6SM OVC025=

USA.gov is the U.S. government's official web portal to all federal, state and local government web resources and services.